Terminal Aerodrome Forecast
Issued by NWS

Home | Current Version | Previous Version | Text Only | Print | Product List | Glossary On
Versions: 1 2 3 4 5 6 7 8 9 10 11 12 13 14 15 16
000
FTUS46 KSEW 182300
TAFCLM
TAF
KCLM 182323Z 1900/1924 28005KT P6SM -SHRA BKN015 OVC060
     FM191200 26004KT P6SM VCSH OVC012
     FM191900 VRB05KT P6SM BKN025
      AMD NOT SKED=

USA.gov is the U.S. government's official web portal to all federal, state and local government web resources and services.